createdAt,value
2017-06-08T00:00:11.130Z,13.50
2017-06-08T00:02:37.379Z,13.50
2017-06-08T00:05:03.607Z,13.50
2017-06-08T00:07:29.815Z,13.60
2017-06-08T00:09:56.015Z,13.60
2017-06-08T00:12:22.299Z,13.50
2017-06-08T00:14:48.467Z,13.50
2017-06-08T00:17:14.703Z,13.60
2017-06-08T00:19:40.924Z,13.50
2017-06-08T00:22:07.075Z,13.50
2017-06-08T00:24:34.014Z,13.60
2017-06-08T00:27:00.987Z,13.50
2017-06-08T00:29:27.175Z,13.50
2017-06-08T00:31:53.339Z,13.40
2017-06-08T00:34:19.571Z,13.50
2017-06-08T00:36:45.739Z,13.50
2017-06-08T00:39:11.914Z,13.50
2017-06-08T00:41:38.861Z,13.30
2017-06-08T00:44:06.566Z,13.40
2017-06-08T00:46:35.344Z,13.20
2017-06-08T00:49:01.550Z,13.10
2017-06-08T00:51:27.735Z,13.10
2017-06-08T00:53:53.933Z,13.20
2017-06-08T00:56:20.131Z,13.20
2017-06-08T00:58:46.362Z,13.10
2017-06-08T01:01:12.562Z,13.10
2017-06-08T01:03:39.472Z,13.10
2017-06-08T01:06:05.884Z,13.00
2017-06-08T01:08:32.321Z,13.00
2017-06-08T01:10:58.523Z,13.20
2017-06-08T01:13:26.635Z,12.90
2017-06-08T01:15:57.420Z,12.90
2017-06-08T01:18:24.447Z,12.90
2017-06-08T01:20:50.664Z,12.90
2017-06-08T01:23:16.854Z,13.00
2017-06-08T01:25:43.045Z,13.00
2017-06-08T01:28:09.312Z,12.90
2017-06-08T01:30:35.515Z,12.90
2017-06-08T01:33:02.504Z,12.80
2017-06-08T01:35:28.780Z,12.70
2017-06-08T01:37:55.021Z,13.00
2017-06-08T01:40:22.077Z,12.70
2017-06-08T01:42:48.317Z,12.70
2017-06-08T01:45:14.675Z,12.70
2017-06-08T01:47:40.863Z,12.60
2017-06-08T01:50:07.908Z,12.60
2017-06-08T01:52:34.896Z,12.70
2017-06-08T01:55:01.138Z,12.60
2017-06-08T01:57:27.402Z,12.80
2017-06-08T01:59:53.585Z,12.80
2017-06-08T02:02:19.810Z,12.80
2017-06-08T02:04:46.029Z,12.80
2017-06-08T02:07:12.260Z,12.80
2017-06-08T02:09:38.492Z,12.70
2017-06-08T02:12:04.739Z,12.70
2017-06-08T02:14:31.026Z,12.70
2017-06-08T02:16:57.983Z,12.60
2017-06-08T02:19:24.230Z,12.60
2017-06-08T02:21:50.558Z,12.60
2017-06-08T02:24:16.791Z,12.50
2017-06-08T02:26:43.027Z,12.50
2017-06-08T02:29:09.227Z,12.50
2017-06-08T02:31:35.790Z,12.60
2017-06-08T02:34:02.043Z,12.50
2017-06-08T02:36:28.244Z,12.60
2017-06-08T02:38:54.469Z,12.60
2017-06-08T02:41:20.671Z,12.60
2017-06-08T02:43:47.671Z,12.50
2017-06-08T02:46:13.844Z,12.50
2017-06-08T02:48:40.091Z,12.50
2017-06-08T02:51:06.303Z,12.40
2017-06-08T02:53:33.244Z,12.40
2017-06-08T02:56:00.178Z,12.40
2017-06-08T02:58:26.372Z,12.40
2017-06-08T03:00:52.795Z,12.20
2017-06-08T03:03:19.043Z,12.30
2017-06-08T03:05:45.246Z,12.20
2017-06-08T03:08:11.797Z,12.20
2017-06-08T03:10:37.979Z,12.30
2017-06-08T03:13:04.910Z,12.30
2017-06-08T03:15:31.855Z,12.30
2017-06-08T03:17:58.044Z,12.40
2017-06-08T03:20:24.233Z,12.40
2017-06-08T03:22:50.451Z,12.50
2017-06-08T03:25:17.408Z,12.50
2017-06-08T03:27:43.588Z,12.50
2017-06-08T03:30:09.771Z,12.50
2017-06-08T03:32:35.998Z,12.50
2017-06-08T03:35:02.215Z,12.50
2017-06-08T03:37:29.148Z,12.50
2017-06-08T03:39:55.723Z,12.50
2017-06-08T03:42:21.970Z,12.50
2017-06-08T03:44:48.183Z,12.40
2017-06-08T03:47:14.381Z,12.50
2017-06-08T03:49:41.327Z,12.50
2017-06-08T03:52:08.264Z,12.60
2017-06-08T03:54:35.256Z,12.70
2017-06-08T03:57:01.419Z,12.70
2017-06-08T03:59:27.648Z,12.70
2017-06-08T04:01:53.841Z,12.70
2017-06-08T04:04:20.020Z,12.70
2017-06-08T04:06:47.016Z,12.70
2017-06-08T04:09:16.786Z,12.80
2017-06-08T04:11:43.674Z,12.70
2017-06-08T04:14:09.890Z,12.70
2017-06-08T04:16:36.099Z,12.80
2017-06-08T04:19:03.028Z,12.90
2017-06-08T04:21:29.214Z,12.90
2017-06-08T04:23:55.394Z,12.90
2017-06-08T04:26:22.338Z,13.00
2017-06-08T04:28:48.524Z,13.00
2017-06-08T04:31:14.720Z,12.90
2017-06-08T04:33:40.955Z,13.10
2017-06-08T04:36:07.115Z,13.10
2017-06-08T04:38:33.310Z,13.10
2017-06-08T04:40:59.462Z,13.10
2017-06-08T04:43:25.623Z,13.20
2017-06-08T04:45:51.847Z,13.20
2017-06-08T04:48:18.030Z,13.30
2017-06-08T04:50:44.277Z,13.30
2017-06-08T04:53:10.451Z,13.50
2017-06-08T04:55:37.390Z,13.60
2017-06-08T04:58:03.660Z,13.50
2017-06-08T05:00:29.811Z,13.50
2017-06-08T05:02:56.015Z,13.40
2017-06-08T05:05:22.173Z,13.50
2017-06-08T05:07:48.347Z,13.40
2017-06-08T05:10:14.541Z,13.50
2017-06-08T05:12:40.746Z,13.60
2017-06-08T05:15:07.023Z,13.90
2017-06-08T05:17:35.567Z,14.10
2017-06-08T05:20:01.760Z,14.10
2017-06-08T05:22:27.951Z,14.10
2017-06-08T05:24:54.136Z,14.00
2017-06-08T05:27:20.347Z,14.00
2017-06-08T05:29:46.554Z,14.10
2017-06-08T05:32:13.479Z,14.80
2017-06-08T05:34:39.692Z,14.80
2017-06-08T05:37:06.734Z,15.00
2017-06-08T05:39:32.902Z,15.00
2017-06-08T05:41:59.824Z,15.00
2017-06-08T05:44:26.020Z,15.00
2017-06-08T05:46:52.272Z,15.10
2017-06-08T05:49:18.451Z,15.00
2017-06-08T05:51:44.723Z,15.00
2017-06-08T05:54:10.927Z,14.90
2017-06-08T05:56:37.148Z,14.80
2017-06-08T05:59:03.415Z,14.70
2017-06-08T06:01:29.966Z,14.60
2017-06-08T06:03:56.219Z,14.60
2017-06-08T06:06:23.168Z,14.80
2017-06-08T06:08:50.467Z,15.10
2017-06-08T06:11:16.670Z,15.40
2017-06-08T06:13:42.932Z,15.60
2017-06-08T06:16:09.131Z,16.00
2017-06-08T06:18:35.348Z,16.00
2017-06-08T06:21:01.569Z,16.40
2017-06-08T06:23:27.769Z,16.70
2017-06-08T06:25:53.960Z,17.10
2017-06-08T06:28:20.191Z,17.30
2017-06-08T06:30:46.383Z,17.40
2017-06-08T06:33:13.306Z,17.50
2017-06-08T06:35:40.255Z,17.50
2017-06-08T06:38:07.211Z,17.50
2017-06-08T06:40:34.166Z,17.60
2017-06-08T06:43:01.094Z,18.10
2017-06-08T06:45:28.014Z,18.20
2017-06-08T06:47:54.175Z,18.20
2017-06-08T06:50:21.059Z,18.70
2017-06-08T06:52:47.973Z,18.40
2017-06-08T06:55:14.194Z,18.30
2017-06-08T06:57:41.102Z,17.90
2017-06-08T07:00:07.284Z,17.80
2017-06-08T07:02:33.507Z,17.80
2017-06-08T07:04:59.704Z,17.70
2017-06-08T07:07:25.961Z,17.80
2017-06-08T07:09:52.897Z,17.90
2017-06-08T07:12:19.871Z,18.20
2017-06-08T07:14:46.069Z,18.60
2017-06-08T07:17:12.999Z,18.80
2017-06-08T07:19:39.175Z,18.80
2017-06-08T07:22:05.373Z,19.10
2017-06-08T07:24:32.331Z,19.40
2017-06-08T07:26:59.407Z,19.90
2017-06-08T07:29:25.588Z,19.90
2017-06-08T07:31:51.834Z,20.50
2017-06-08T07:34:18.780Z,21.30
2017-06-08T07:36:45.691Z,21.00
2017-06-08T07:39:11.880Z,21.00
2017-06-08T07:41:38.090Z,20.80
2017-06-08T07:44:04.273Z,20.70
2017-06-08T07:46:30.454Z,20.50
2017-06-08T07:48:56.721Z,20.50
2017-06-08T07:51:22.923Z,20.70
2017-06-08T07:53:49.151Z,21.20
2017-06-08T07:56:15.335Z,21.60
2017-06-08T07:58:41.540Z,21.80
2017-06-08T08:01:20.075Z,21.90
2017-06-08T08:03:46.264Z,21.80
2017-06-08T08:06:12.426Z,21.80
2017-06-08T08:08:38.653Z,22.20
2017-06-08T08:11:04.847Z,22.80
2017-06-08T08:13:31.065Z,23.30
2017-06-08T08:15:57.339Z,23.20
2017-06-08T08:18:23.578Z,22.70
2017-06-08T08:20:49.845Z,22.80
2017-06-08T08:23:16.073Z,22.80
2017-06-08T08:25:42.283Z,23.00
2017-06-08T08:28:16.246Z,23.00
2017-06-08T08:30:42.500Z,22.90
2017-06-08T08:33:08.755Z,22.90
2017-06-08T08:35:35.798Z,22.60
2017-06-08T08:38:02.810Z,22.50
2017-06-08T08:40:29.011Z,22.50
2017-06-08T08:42:55.254Z,22.10
2017-06-08T08:45:21.472Z,22.20
2017-06-08T08:47:47.711Z,22.60
2017-06-08T08:50:14.761Z,23.10
2017-06-08T08:52:41.021Z,23.30
2017-06-08T08:55:07.290Z,23.30
2017-06-08T08:57:48.451Z,23.40
2017-06-08T09:00:14.711Z,23.40
2017-06-08T09:02:40.950Z,23.30
2017-06-08T09:05:07.156Z,23.40
2017-06-08T09:07:33.351Z,23.50
2017-06-08T09:10:00.275Z,23.40
2017-06-08T09:12:26.425Z,23.40
2017-06-08T09:14:52.655Z,23.30
2017-06-08T09:17:18.855Z,23.40
2017-06-08T09:19:45.020Z,23.20
2017-06-08T09:22:11.211Z,22.90
2017-06-08T09:24:37.420Z,22.90
2017-06-08T09:27:03.667Z,23.00
2017-06-08T09:29:29.863Z,22.90
2017-06-08T09:31:56.116Z,23.30
2017-06-08T09:34:22.390Z,23.40
2017-06-08T09:36:49.317Z,23.70
2017-06-08T09:39:15.504Z,23.60
2017-06-08T09:41:41.723Z,23.90
2017-06-08T09:44:07.927Z,24.80
2017-06-08T09:46:34.870Z,24.80
2017-06-08T09:49:01.843Z,24.90
2017-06-08T09:51:28.091Z,24.90
2017-06-08T09:53:54.282Z,24.80
2017-06-08T09:56:21.199Z,25.30
2017-06-08T09:58:47.423Z,26.00
2017-06-08T10:01:13.640Z,25.90
2017-06-08T10:03:39.843Z,27.20
2017-06-08T10:06:06.153Z,27.10
2017-06-08T10:08:32.388Z,27.30
2017-06-08T10:10:58.681Z,27.20
2017-06-08T10:13:26.555Z,27.50
2017-06-08T10:15:52.887Z,27.90
2017-06-08T10:18:19.451Z,28.10
2017-06-08T10:20:45.916Z,28.00
2017-06-08T10:23:12.136Z,28.30
2017-06-08T10:25:38.359Z,27.70
2017-06-08T10:28:04.626Z,27.60
2017-06-08T10:30:31.010Z,28.10
2017-06-08T10:32:57.241Z,28.10
2017-06-08T10:35:23.450Z,28.10
2017-06-08T10:37:49.633Z,28.70
2017-06-08T10:40:15.803Z,28.50
2017-06-08T10:42:42.032Z,28.30
2017-06-08T10:45:08.606Z,28.00
2017-06-08T10:47:34.782Z,28.00
2017-06-08T10:50:00.968Z,26.90
2017-06-08T10:52:27.191Z,26.80
2017-06-08T10:54:53.386Z,26.80
2017-06-08T10:57:20.331Z,26.00
2017-06-08T10:59:47.279Z,25.50
2017-06-08T11:02:13.501Z,25.50
2017-06-08T11:04:40.427Z,25.20
2017-06-08T11:07:06.621Z,25.00
2017-06-08T11:09:32.872Z,25.30
2017-06-08T11:11:59.020Z,25.40
2017-06-08T11:14:25.243Z,25.50
2017-06-08T11:16:51.387Z,25.40
2017-06-08T11:19:18.322Z,25.60
2017-06-08T11:21:44.529Z,25.60
2017-06-08T11:24:10.723Z,26.10
2017-06-08T11:26:36.968Z,26.60
2017-06-08T11:29:03.185Z,26.50
2017-06-08T11:31:29.396Z,26.50
2017-06-08T11:33:55.609Z,25.40
2017-06-08T11:36:22.577Z,25.20
2017-06-08T11:38:48.758Z,25.20
2017-06-08T11:41:14.934Z,24.90
2017-06-08T11:43:41.122Z,24.90
2017-06-08T11:46:07.360Z,24.70
2017-06-08T11:48:34.292Z,24.90
2017-06-08T11:51:00.477Z,24.90
2017-06-08T11:53:26.656Z,25.20
2017-06-08T11:55:52.918Z,25.70
2017-06-08T11:58:19.139Z,25.60
2017-06-08T12:00:45.350Z,25.60
2017-06-08T12:03:12.304Z,25.30
2017-06-08T12:05:39.248Z,25.30
2017-06-08T12:08:05.492Z,25.20
2017-06-08T12:10:31.751Z,25.20
2017-06-08T12:12:58.496Z,25.00
2017-06-08T12:15:24.707Z,25.40
2017-06-08T12:17:50.858Z,25.80
2017-06-08T12:20:17.088Z,25.90
2017-06-08T12:22:43.293Z,25.50
2017-06-08T12:25:09.516Z,25.30
2017-06-08T12:27:35.754Z,25.40
2017-06-08T12:30:03.491Z,25.20
2017-06-08T12:32:29.698Z,25.20
2017-06-08T12:34:55.921Z,25.10
2017-06-08T12:37:22.104Z,25.10
2017-06-08T12:39:48.317Z,24.90
2017-06-08T12:42:14.515Z,25.00
2017-06-08T12:44:41.452Z,26.10
2017-06-08T12:47:07.683Z,26.10
2017-06-08T12:49:34.628Z,27.50
2017-06-08T12:52:00.889Z,27.50
2017-06-08T12:54:27.080Z,27.90
2017-06-08T12:56:53.343Z,28.00
2017-06-08T12:59:20.291Z,27.70
2017-06-08T13:01:46.499Z,27.60
2017-06-08T13:04:12.711Z,27.70
2017-06-08T13:06:38.932Z,28.10
2017-06-08T13:09:05.176Z,28.00
2017-06-08T13:11:31.387Z,28.50
2017-06-08T13:13:57.601Z,28.90
2017-06-08T13:16:23.799Z,29.00
2017-06-08T13:18:49.970Z,28.90
2017-06-08T13:21:16.215Z,29.20
2017-06-08T13:23:42.385Z,28.90
2017-06-08T13:26:08.576Z,29.90
2017-06-08T13:28:34.813Z,29.80
2017-06-08T13:31:01.767Z,30.40
2017-06-08T13:33:27.985Z,30.30
2017-06-08T13:35:54.940Z,29.80
2017-06-08T13:38:21.874Z,29.80
2017-06-08T13:40:48.107Z,30.20
2017-06-08T13:43:14.309Z,30.80
2017-06-08T13:45:40.575Z,30.80
2017-06-08T13:48:06.765Z,30.00
2017-06-08T13:50:33.010Z,28.90
2017-06-08T13:52:59.299Z,27.90
2017-06-08T13:55:25.485Z,27.70
2017-06-08T13:57:52.435Z,26.90
2017-06-08T14:00:19.413Z,26.70
2017-06-08T14:02:45.592Z,26.30
2017-06-08T14:05:12.566Z,26.00
2017-06-08T14:07:39.518Z,25.80
2017-06-08T14:10:05.752Z,25.80
2017-06-08T14:12:31.966Z,25.50
2017-06-08T14:14:58.192Z,25.40
2017-06-08T14:17:25.141Z,25.30
2017-06-08T14:19:52.084Z,25.20
2017-06-08T14:22:18.299Z,25.10
2017-06-08T14:24:44.507Z,25.10
2017-06-08T14:27:10.737Z,24.90
2017-06-08T14:29:36.916Z,24.80
2017-06-08T14:32:03.127Z,24.70
2017-06-08T14:34:30.076Z,24.50
2017-06-08T14:36:57.011Z,24.40
2017-06-08T14:39:23.941Z,24.50
2017-06-08T14:41:50.176Z,24.50
2017-06-08T14:44:16.375Z,24.30
2017-06-08T14:46:42.573Z,24.20
2017-06-08T14:49:08.783Z,24.10
2017-06-08T14:51:35.723Z,24.30
2017-06-08T14:54:02.737Z,24.20
2017-06-08T14:56:28.930Z,24.20
2017-06-08T14:58:55.132Z,24.20
2017-06-08T15:01:22.078Z,24.10
2017-06-08T15:03:48.991Z,24.20
2017-06-08T15:06:15.184Z,24.20
2017-06-08T15:08:41.400Z,24.10
2017-06-08T15:11:07.599Z,24.20
2017-06-08T15:13:34.556Z,24.00
2017-06-08T15:16:01.471Z,24.00
2017-06-08T15:18:27.671Z,24.00
2017-06-08T15:20:53.903Z,24.00
2017-06-08T15:23:20.118Z,24.00
2017-06-08T15:25:46.318Z,23.90
2017-06-08T15:28:12.528Z,24.00
2017-06-08T15:30:38.723Z,23.90
2017-06-08T15:33:04.906Z,23.80
2017-06-08T15:35:31.126Z,23.70
2017-06-08T15:37:58.099Z,23.80
2017-06-08T15:40:24.294Z,23.70
2017-06-08T15:42:51.263Z,23.60
2017-06-08T15:45:17.546Z,23.50
2017-06-08T15:47:43.738Z,23.50
2017-06-08T15:50:09.958Z,23.50
2017-06-08T15:52:36.174Z,23.40
2017-06-08T15:55:02.375Z,23.50
2017-06-08T15:57:28.578Z,23.50
2017-06-08T15:59:54.798Z,23.40
2017-06-08T16:02:20.989Z,23.30
2017-06-08T16:04:47.251Z,23.30
2017-06-08T16:07:13.472Z,23.30
2017-06-08T16:09:39.676Z,23.30
2017-06-08T16:12:05.974Z,23.20
2017-06-08T16:14:32.994Z,23.20
2017-06-08T16:16:59.156Z,23.20
2017-06-08T16:19:25.355Z,23.10
2017-06-08T16:21:51.535Z,23.10
2017-06-08T16:24:17.753Z,23.20
2017-06-08T16:26:44.697Z,23.20
2017-06-08T16:29:11.641Z,23.20
2017-06-08T16:31:38.605Z,23.30
2017-06-08T16:34:04.833Z,23.30
2017-06-08T16:36:31.030Z,23.40
2017-06-08T16:38:57.235Z,23.40
2017-06-08T16:41:23.453Z,23.30
2017-06-08T16:43:49.700Z,23.20
2017-06-08T16:46:30.854Z,23.30
2017-06-08T16:48:57.053Z,23.30
2017-06-08T16:51:23.260Z,23.00
2017-06-08T16:53:49.422Z,23.20
2017-06-08T16:56:30.570Z,23.20
2017-06-08T16:58:57.523Z,23.10
2017-06-08T17:01:24.462Z,23.00
2017-06-08T17:03:51.442Z,23.10
2017-06-08T17:06:17.630Z,23.20
2017-06-08T17:08:43.852Z,23.00
2017-06-08T17:11:10.071Z,22.90
2017-06-08T17:13:36.239Z,22.80
2017-06-08T17:16:02.453Z,23.00
2017-06-08T17:18:30.123Z,22.90
2017-06-08T17:20:57.135Z,22.90
2017-06-08T17:23:23.282Z,22.90
2017-06-08T17:25:49.511Z,23.00
2017-06-08T17:28:15.748Z,23.00
2017-06-08T17:30:42.697Z,23.00
2017-06-08T17:33:08.903Z,22.90
2017-06-08T17:35:36.303Z,23.00
2017-06-08T17:38:02.482Z,23.00
2017-06-08T17:40:28.719Z,23.10
2017-06-08T17:42:54.926Z,23.10
2017-06-08T17:45:21.155Z,23.10
2017-06-08T17:47:47.350Z,23.10
2017-06-08T17:50:13.588Z,23.00
2017-06-08T17:52:39.852Z,23.10
2017-06-08T17:55:06.037Z,23.10
2017-06-08T17:57:32.218Z,23.10
2017-06-08T17:59:58.451Z,23.10
2017-06-08T18:02:24.649Z,23.10
2017-06-08T18:04:50.831Z,23.20
2017-06-08T18:07:17.892Z,23.10
2017-06-08T18:09:44.159Z,23.10
2017-06-08T18:12:10.349Z,23.00
2017-06-08T18:14:36.542Z,23.00
2017-06-08T18:17:03.498Z,23.00
2017-06-08T18:19:29.691Z,23.00
2017-06-08T18:21:55.894Z,23.00
2017-06-08T18:24:22.080Z,23.00
2017-06-08T18:26:48.326Z,22.90
2017-06-08T18:29:15.299Z,22.90
2017-06-08T18:31:41.502Z,22.80
2017-06-08T18:34:08.480Z,22.80
2017-06-08T18:36:34.681Z,22.70
2017-06-08T18:39:00.911Z,22.70
2017-06-08T18:41:27.112Z,22.60
2017-06-08T18:43:53.291Z,22.60
2017-06-08T18:46:19.514Z,22.50
2017-06-08T18:48:45.750Z,22.50
2017-06-08T18:51:11.937Z,22.50
2017-06-08T18:53:38.897Z,22.40
2017-06-08T18:56:05.189Z,22.40
2017-06-08T18:58:31.408Z,22.40
2017-06-08T19:01:12.542Z,22.30
2017-06-08T19:03:38.813Z,22.30
2017-06-08T19:06:05.022Z,22.20
2017-06-08T19:08:31.211Z,22.20
2017-06-08T19:10:58.138Z,22.20
2017-06-08T19:13:24.416Z,22.10
2017-06-08T19:15:50.557Z,22.10
2017-06-08T19:18:16.759Z,22.00
2017-06-08T19:20:42.996Z,22.00
2017-06-08T19:23:09.408Z,21.90
2017-06-08T19:25:37.660Z,21.80
2017-06-08T19:28:05.172Z,21.70
2017-06-08T19:30:31.460Z,21.70
2017-06-08T19:32:57.677Z,21.70
2017-06-08T19:35:23.883Z,21.60
2017-06-08T19:37:50.123Z,21.60
2017-06-08T19:40:16.412Z,21.50
2017-06-08T19:42:44.457Z,21.50
2017-06-08T19:45:11.856Z,21.40
2017-06-08T19:47:38.325Z,21.40
2017-06-08T19:50:04.534Z,21.30
2017-06-08T19:52:30.770Z,21.30
2017-06-08T19:54:57.004Z,21.20
2017-06-08T19:57:23.741Z,21.20
2017-06-08T19:59:49.964Z,21.10
2017-06-08T20:02:16.257Z,21.10
2017-06-08T20:04:42.481Z,21.00
2017-06-08T20:07:08.705Z,20.90
2017-06-08T20:09:35.660Z,20.90
2017-06-08T20:12:02.396Z,20.90
2017-06-08T20:14:28.651Z,20.80
2017-06-08T20:16:54.843Z,20.70
2017-06-08T20:19:21.770Z,20.60
2017-06-08T20:21:47.982Z,20.60
2017-06-08T20:24:14.395Z,20.50
2017-06-08T20:26:40.645Z,20.50
2017-06-08T20:29:06.847Z,20.60
2017-06-08T20:31:33.089Z,20.60
2017-06-08T20:33:59.259Z,20.60
2017-06-08T20:36:26.296Z,20.50
2017-06-08T20:38:52.512Z,20.50
2017-06-08T20:41:18.692Z,20.50
2017-06-08T20:43:44.975Z,20.50
2017-06-08T20:46:11.217Z,20.40
2017-06-08T20:48:37.432Z,20.40
2017-06-08T20:51:03.636Z,20.30
2017-06-08T20:53:29.845Z,20.20
2017-06-08T20:55:56.065Z,20.20
2017-06-08T20:58:22.946Z,20.10
2017-06-08T21:00:49.191Z,20.20
2017-06-08T21:03:16.090Z,20.10
2017-06-08T21:05:42.315Z,20.10
2017-06-08T21:08:08.511Z,20.00
2017-06-08T21:10:35.445Z,19.70
2017-06-08T21:13:02.663Z,19.80
2017-06-08T21:15:28.885Z,19.70
2017-06-08T21:17:55.059Z,19.60
2017-06-08T21:20:21.288Z,19.50
2017-06-08T21:22:47.666Z,19.50
2017-06-08T21:25:13.904Z,19.50
2017-06-08T21:27:40.124Z,19.40
2017-06-08T21:30:07.106Z,19.50
2017-06-08T21:32:33.408Z,19.40
2017-06-08T21:35:01.100Z,19.30
2017-06-08T21:37:27.292Z,19.20
2017-06-08T21:39:53.463Z,19.20
2017-06-08T21:42:19.989Z,19.20
2017-06-08T21:44:46.223Z,19.10
2017-06-08T21:47:12.862Z,19.10
2017-06-08T21:49:39.155Z,19.00
2017-06-08T21:52:05.702Z,19.00
2017-06-08T21:54:32.062Z,18.90
2017-06-08T21:56:59.081Z,18.90
2017-06-08T21:59:25.283Z,18.90
2017-06-08T22:01:53.268Z,18.80
2017-06-08T22:04:19.930Z,18.70
2017-06-08T22:06:46.217Z,18.60
2017-06-08T22:09:13.215Z,18.60
2017-06-08T22:11:39.412Z,18.60
2017-06-08T22:14:05.628Z,18.60
2017-06-08T22:16:33.771Z,18.50
2017-06-08T22:19:00.412Z,18.40
2017-06-08T22:21:26.899Z,18.40
2017-06-08T22:23:53.124Z,18.30
2017-06-08T22:26:19.350Z,18.20
2017-06-08T22:28:45.606Z,18.20
2017-06-08T22:31:11.814Z,18.20
2017-06-08T22:33:38.919Z,18.10
2017-06-08T22:36:05.854Z,18.10
2017-06-08T22:38:32.202Z,18.10
2017-06-08T22:40:58.691Z,18.10
2017-06-08T22:43:24.840Z,18.10
2017-06-08T22:45:51.039Z,18.10
2017-06-08T22:48:17.388Z,18.10
2017-06-08T22:50:43.623Z,18.10
2017-06-08T22:53:09.779Z,18.10
2017-06-08T22:55:36.687Z,18.10
2017-06-08T22:58:02.867Z,18.10
2017-06-08T23:00:29.104Z,18.10
2017-06-08T23:02:55.312Z,18.00
2017-06-08T23:05:22.291Z,18.00
2017-06-08T23:07:48.558Z,18.00
2017-06-08T23:10:14.792Z,17.90
2017-06-08T23:12:40.992Z,17.80
2017-06-08T23:15:07.208Z,17.70
2017-06-08T23:17:33.415Z,17.80
2017-06-08T23:20:00.331Z,17.80
2017-06-08T23:22:26.564Z,17.80
2017-06-08T23:24:53.919Z,17.80
2017-06-08T23:27:20.126Z,17.80
2017-06-08T23:29:46.360Z,17.80
2017-06-08T23:32:12.634Z,17.80
2017-06-08T23:34:38.852Z,17.80
2017-06-08T23:37:05.823Z,17.80
2017-06-08T23:39:32.014Z,17.70
2017-06-08T23:41:58.294Z,17.70
2017-06-08T23:44:24.604Z,17.60
2017-06-08T23:46:50.787Z,17.60
2017-06-08T23:49:17.015Z,17.50
2017-06-08T23:51:43.192Z,17.40
2017-06-08T23:54:09.407Z,17.40
2017-06-08T23:56:36.323Z,17.20
2017-06-08T23:59:02.532Z,17.20
